Time;durP1;ratioP1;P1;durP2;ratioP2;P2;SDS_P1;SDS_P2;PMS_P1;PMS_P2;Temp;Humidity;BMP_temperature;BMP_pressure;BME280_temperature;BME280_humidity;BME280_pressure;Samples;Min_cycle;Max_cycle;Signal;HPM_P1;HPM_P2
2023/05/15 00:00:31;;;;;;;19.27;17.20;;;;;;;-145.94;64.40;76610.69;5096987;28;20217;-68
2023/05/15 00:02:57;;;;;;;17.43;15.70;;;;;;;-145.94;64.58;76616.81;5096899;28;20198;-68
2023/05/15 00:05:24;;;;;;;18.50;15.93;;;;;;;-145.94;64.33;76618.84;5097418;28;20552;-68
2023/05/15 00:07:51;;;;;;;20.70;15.63;;;;;;;-145.94;64.04;76614.78;5096746;28;20218;-68
2023/05/15 00:10:17;;;;;;;18.03;16.33;;;;;;;-145.94;64.18;76612.75;5097048;28;20194;-68
2023/05/15 00:12:44;;;;;;;20.93;17.33;;;;;;;-145.94;64.59;76604.59;5097528;28;20182;-68
2023/05/15 00:15:10;;;;;;;21.77;18.17;;;;;;;-145.94;65.07;76600.50;5096718;28;20178;-68
2023/05/15 00:17:36;;;;;;;27.17;19.73;;;;;;;-145.94;65.19;76592.34;5096592;28;20300;-68
2023/05/15 00:20:04;;;;;;;22.77;19.43;;;;;;;-145.94;66.01;76586.22;5096908;28;20186;-68
2023/05/15 00:22:30;;;;;;;29.10;19.83;;;;;;;-145.94;66.18;76586.22;5096472;28;20212;-68
2023/05/15 00:24:58;;;;;;;23.90;19.40;;;;;;;-145.94;66.45;76592.34;5096550;28;20182;-68
2023/05/15 00:27:25;;;;;;;19.47;17.00;;;;;;;-145.94;66.50;76588.28;5096570;28;20221;-68
2023/05/15 00:29:51;;;;;;;21.20;18.03;;;;;;;-145.94;66.56;76592.34;5095222;28;20190;-68
2023/05/15 00:32:18;;;;;;;20.30;18.33;;;;;;;-145.94;66.19;76596.44;5096632;28;20530;-68
2023/05/15 00:34:44;;;;;;;18.57;16.70;;;;;;;-145.94;66.13;76604.59;5096350;28;20273;-68
2023/05/15 00:37:11;;;;;;;20.83;17.77;;;;;;;-145.94;66.39;76610.69;5078240;28;20206;-68
2023/05/15 00:39:37;;;;;;;19.60;17.60;;;;;;;-145.94;66.20;76612.75;5096268;28;20178;-68
2023/05/15 00:42:05;;;;;;;25.53;19.53;;;;;;;-145.94;66.03;76614.78;5096128;28;20249;-68
2023/05/15 00:44:33;;;;;;;19.40;17.57;;;;;;;-145.94;66.18;76608.66;5096427;28;20190;-68
2023/05/15 00:47:01;;;;;;;20.37;17.27;;;;;;;-145.94;66.33;76608.66;5096821;28;20205;-69
2023/05/15 00:49:28;;;;;;;18.67;16.77;;;;;;;-145.94;65.94;76602.53;5096029;28;20239;-69
2023/05/15 00:52:00;;;;;;;18.80;16.80;;;;;;;-145.94;66.03;76606.63;5096252;28;20186;-69
2023/05/15 00:54:27;;;;;;;21.07;18.87;;;;;;;-145.94;66.22;76610.69;5096506;28;20190;-69
2023/05/15 00:56:56;;;;;;;20.53;17.53;;;;;;;-145.94;66.01;76612.75;5095841;28;20216;-69
2023/05/15 00:59:26;;;;;;;18.13;16.30;;;;;;;-145.94;66.13;76616.81;5096119;28;20597;-68
2023/05/15 01:01:53;;;;;;;18.67;16.67;;;;;;;-145.94;66.02;76622.94;5095620;28;20237;-68
2023/05/15 01:04:20;;;;;;;21.93;18.17;;;;;;;-145.94;66.09;76624.97;5096040;28;20197;-68
2023/05/15 01:06:47;;;;;;;22.00;17.57;;;;;;;-145.94;66.26;76618.84;5095638;28;20205;-69
2023/05/15 01:09:15;;;;;;;19.27;17.37;;;;;;;-145.94;65.90;76624.97;5095703;28;20182;-68
2023/05/15 01:11:42;;;;;;;19.97;17.87;;;;;;;-145.94;66.03;76631.09;5095616;28;20182;-68
2023/05/15 01:14:08;;;;;;;17.23;15.57;;;;;;;-145.94;66.23;76639.25;5077462;28;20198;-68
2023/05/15 01:16:35;;;;;;;19.20;17.20;;;;;;;-145.94;65.92;76645.38;5077345;28;20305;-69
2023/05/15 01:19:02;;;;;;;20.70;18.33;;;;;;;-145.94;66.23;76643.31;5077380;28;20193;-68
2023/05/15 01:21:52;;;;;;;20.20;17.97;;;;;;;-145.94;66.02;76649.44;5096210;28;20240;-68
2023/05/15 01:25:05;;;;;;;20.40;18.23;;;;;;;-145.94;65.94;76651.47;5060236;28;20194;-68
2023/05/15 01:27:38;;;;;;;33.23;24.17;;;;;;;-145.94;67.59;76647.41;5067000;28;20304;-69
2023/05/15 01:30:17;;;;;;;35.47;23.03;;;;;;;-145.94;68.10;76643.31;5095569;28;20205;-69
2023/05/15 01:33:04;;;;;;;45.30;24.83;;;;;;;-145.94;68.34;76635.16;5095552;28;20166;-69
2023/05/15 01:35:40;;;;;;;31.70;22.73;;;;;;;-145.94;68.23;76635.16;5077146;28;20182;-69
2023/05/15 01:38:34;;;;;;;23.47;18.80;;;;;;;-145.94;68.55;76643.31;5076947;28;20244;-68
2023/05/15 01:41:12;;;;;;;25.27;19.30;;;;;;;-145.94;68.34;76645.38;5077009;28;20636;-68
2023/05/15 01:43:42;;;;;;;22.30;19.10;;;;;;;-145.94;68.46;76653.53;5095522;28;20204;-68
2023/05/15 01:46:13;;;;;;;22.77;19.27;;;;;;;-145.94;68.31;76649.44;5095803;28;20224;-68
2023/05/15 01:48:43;;;;;;;22.17;19.23;;;;;;;-145.94;68.46;76649.44;5093690;28;20186;-68
2023/05/15 01:51:12;;;;;;;32.93;23.33;;;;;;;-145.94;68.09;76651.47;5094902;28;20182;-68
2023/05/15 01:53:42;;;;;;;24.93;21.33;;;;;;;-145.94;68.24;76651.47;5095434;28;20542;-68
2023/05/15 01:56:11;;;;;;;29.57;22.07;;;;;;;-145.94;68.36;76649.44;5094750;28;20190;-68
2023/05/15 01:58:39;;;;;;;29.33;21.93;;;;;;;-145.94;68.19;76663.72;5094693;28;20186;-68
2023/05/15 02:01:07;;;;;;;30.70;22.20;;;;;;;-145.94;68.21;76655.56;5076546;28;20190;-68
2023/05/15 02:03:36;;;;;;;28.10;22.10;;;;;;;-145.94;68.37;76655.56;5076857;28;20213;-68
2023/05/15 02:06:04;;;;;;;32.47;23.27;;;;;;;-145.94;68.50;76661.69;5094953;28;20549;-68
2023/05/15 02:08:31;;;;;;;26.37;20.47;;;;;;;-145.94;68.63;76667.78;5094643;28;20206;-68
2023/05/15 02:11:00;;;;;;;24.53;19.53;;;;;;;-145.94;68.30;76678.00;5076397;28;20662;-68
2023/05/15 02:13:27;;;;;;;28.27;18.57;;;;;;;-145.94;68.64;76682.06;5094250;28;20197;-68
2023/05/15 02:15:54;;;;;;;20.97;18.70;;;;;;;-145.94;68.54;76690.22;5076438;28;20190;-68
2023/05/15 02:18:21;;;;;;;24.47;19.37;;;;;;;-145.94;68.25;76694.31;5094799;28;20596;-68
2023/05/15 02:20:47;;;;;;;25.53;20.43;;;;;;;-145.94;68.32;76692.25;5076906;28;20190;-68
2023/05/15 02:23:14;;;;;;;34.63;23.33;;;;;;;-145.94;68.67;76702.47;5076101;28;20687;-68
2023/05/15 02:25:55;;;;;;;29.70;23.23;;;;;;;-145.94;68.50;76720.81;5094524;28;20648;-68
2023/05/15 02:28:37;;;;;;;35.20;23.60;;;;;;;-145.94;69.51;76724.88;5094011;28;20221;-68
2023/05/15 02:31:41;;;;;;;34.27;23.87;;;;;;;-145.94;70.20;76726.94;5094455;28;20572;-68
2023/05/15 02:34:17;;;;;;;27.27;21.30;;;;;;;-145.94;70.06;76726.94;4992465;28;20201;-68
2023/05/15 02:36:47;;;;;;;28.00;21.93;;;;;;;-145.94;69.61;76735.09;5081825;28;20583;-68
2023/05/15 02:39:15;;;;;;;42.60;27.13;;;;;;;-145.94;70.42;76724.88;5094559;28;20216;-68
2023/05/15 02:41:45;;;;;;;47.87;28.33;;;;;;;-145.94;70.52;76720.81;5093848;28;20206;-68
2023/05/15 02:44:13;;;;;;;49.00;26.43;;;;;;;-145.94;70.63;76712.66;5094729;28;20192;-68
2023/05/15 02:46:40;;;;;;;51.27;29.40;;;;;;;-145.94;71.18;76708.56;5075621;28;20209;-68
2023/05/15 02:49:07;;;;;;;56.87;27.30;;;;;;;-145.94;71.20;76700.41;5093833;28;20182;-68
2023/05/15 02:51:35;;;;;;;60.37;29.67;;;;;;;-145.94;71.26;76702.47;5093792;28;20185;-68
2023/05/15 02:54:02;;;;;;;74.40;34.03;;;;;;;-145.94;70.96;76714.69;5075530;28;20196;-68
2023/05/15 02:56:29;;;;;;;68.13;31.03;;;;;;;-145.94;71.11;76720.81;5075510;28;20273;-68
2023/05/15 02:58:55;;;;;;;67.70;32.23;;;;;;;-145.94;71.55;76718.78;5075463;28;20203;-68
2023/05/15 03:01:22;;;;;;;63.90;33.00;;;;;;;-145.94;71.29;76724.88;5075523;28;20189;-68
2023/05/15 03:03:48;;;;;;;57.00;32.47;;;;;;;-145.94;71.29;76728.97;5075967;28;20212;-68
2023/05/15 03:06:15;;;;;;;61.50;32.93;;;;;;;-145.94;71.79;76728.97;5093701;28;20211;-68
2023/05/15 03:08:42;;;;;;;67.97;31.87;;;;;;;-145.94;71.96;76733.03;5093799;28;20268;-68
2023/05/15 03:11:08;;;;;;;63.20;33.37;;;;;;;-145.94;71.77;76737.13;5075459;28;20243;-68
2023/05/15 03:13:35;;;;;;;67.00;31.67;;;;;;;-145.94;71.40;76735.09;5075427;28;20182;-68
2023/05/15 03:16:01;;;;;;;71.10;34.53;;;;;;;-145.94;71.42;76733.03;5075364;28;20198;-68
2023/05/15 03:18:27;;;;;;;69.27;36.27;;;;;;;-145.94;72.00;76737.13;5093354;28;20259;-68
2023/05/15 03:20:54;;;;;;;64.87;35.57;;;;;;;-145.94;71.64;76741.19;5075326;28;20193;-68
2023/05/15 03:23:20;;;;;;;70.80;36.63;;;;;;;-145.94;71.62;76745.28;5075934;28;20297;-68
2023/05/15 03:25:47;;;;;;;70.80;36.40;;;;;;;-145.94;71.89;76737.13;5093329;28;20178;-68
2023/05/15 03:28:13;;;;;;;64.40;33.73;;;;;;;-145.94;71.41;76753.44;5075017;28;20320;-68
2023/05/15 03:30:43;;;;;;;56.33;32.03;;;;;;;-145.94;71.56;76757.50;5093280;28;20186;-68
2023/05/15 03:33:09;;;;;;;61.23;33.37;;;;;;;-145.94;71.75;76779.94;5093837;28;20243;-68
2023/05/15 03:35:36;;;;;;;59.77;33.17;;;;;;;-145.94;71.90;76786.06;5093224;28;20186;-68
2023/05/15 03:38:02;;;;;;;65.03;33.70;;;;;;;-145.94;71.32;76771.78;5093145;28;20703;-68
2023/05/15 03:40:28;;;;;;;57.47;32.07;;;;;;;-145.94;71.66;76790.16;5093208;28;20663;-68
2023/05/15 03:42:57;;;;;;;74.23;36.30;;;;;;;-145.94;71.39;76792.19;5093356;28;20203;-68
2023/05/15 03:45:23;;;;;;;65.70;32.10;;;;;;;-145.94;71.48;76790.16;5093702;28;20186;-68
2023/05/15 03:47:50;;;;;;;65.73;33.43;;;;;;;-145.94;71.05;76790.16;5091724;28;20271;-68
2023/05/15 03:50:16;;;;;;;63.07;34.27;;;;;;;-145.94;71.15;76790.16;5093385;28;20224;-68
2023/05/15 03:52:43;;;;;;;58.00;33.50;;;;;;;-145.94;71.12;76800.34;5093633;28;20703;-68
2023/05/15 03:55:09;;;;;;;69.40;32.53;;;;;;;-145.94;70.98;76804.41;5058556;28;20192;-68
2023/05/15 03:57:36;;;;;;;55.90;31.37;;;;;;;-145.94;71.17;76810.53;5093078;28;20232;-68
2023/05/15 04:00:08;;;;;;;58.23;32.33;;;;;;;-145.94;71.08;76806.47;5093009;28;20257;-68
2023/05/15 04:02:37;;;;;;;60.40;31.17;;;;;;;-145.94;70.74;76814.63;5092935;28;20198;-68
2023/05/15 04:05:04;;;;;;;57.27;33.10;;;;;;;-145.94;71.03;76816.66;5092990;28;20178;-68
2023/05/15 04:07:35;;;;;;;59.43;33.47;;;;;;;-145.94;70.37;76826.84;5093110;28;20240;-68
2023/05/15 04:10:01;;;;;;;58.37;34.57;;;;;;;-145.94;70.91;76830.94;5093274;28;20182;-68
2023/05/15 04:12:30;;;;;;;69.67;34.23;;;;;;;-145.94;70.74;76824.81;5092860;28;20182;-68
2023/05/15 04:15:17;;;;;;;68.43;35.33;;;;;;;-145.94;70.41;76826.84;5093113;28;20272;-68
2023/05/15 04:17:45;;;;;;;54.20;32.23;;;;;;;-145.94;70.62;76835.00;5092883;28;20201;-68
2023/05/15 04:20:15;;;;;;;63.37;34.37;;;;;;;-145.94;70.60;76830.94;5093367;28;20581;-68
2023/05/15 04:22:42;;;;;;;65.23;35.20;;;;;;;-145.94;70.33;76826.84;5093001;28;20194;-68
2023/05/15 04:25:10;;;;;;;68.47;35.87;;;;;;;-145.94;70.71;76837.03;5092768;28;20240;-68
2023/05/15 04:27:37;;;;;;;73.20;34.27;;;;;;;-145.94;71.02;76839.09;5092568;28;20777;-68
2023/05/15 04:30:04;;;;;;;63.83;34.13;;;;;;;-145.94;70.96;76845.19;5093217;28;20194;-68
2023/05/15 04:32:35;;;;;;;62.30;34.40;;;;;;;-145.94;70.86;76841.13;5092946;28;20302;-68
2023/05/15 04:35:04;;;;;;;67.80;35.70;;;;;;;-145.94;70.90;76843.16;5092706;28;20178;-68
2023/05/15 04:37:31;;;;;;;63.63;34.57;;;;;;;-145.94;70.29;76857.44;5096202;28;20715;-68
2023/05/15 04:39:57;;;;;;;60.00;32.43;;;;;;;-145.94;70.49;76855.41;5096729;28;20273;-68
2023/05/15 04:42:24;;;;;;;58.67;33.13;;;;;;;-145.94;70.39;76843.16;5096690;28;20205;-68
2023/05/15 04:44:50;;;;;;;57.47;32.17;;;;;;;-145.94;70.52;76857.44;5096187;28;20188;-68
2023/05/15 04:47:16;;;;;;;68.87;33.70;;;;;;;-145.94;70.47;76865.59;5095946;28;20699;-68
2023/05/15 04:49:43;;;;;;;61.40;32.97;;;;;;;-145.94;70.70;76869.66;5096338;28;20576;-68
2023/05/15 04:52:09;;;;;;;68.23;34.83;;;;;;;-145.94;71.18;76883.94;5096221;28;20186;-68
2023/05/15 04:54:36;;;;;;;72.00;35.47;;;;;;;-145.94;70.74;76875.78;5096167;28;20190;-68
2023/05/15 04:57:02;;;;;;;73.67;35.23;;;;;;;-145.94;70.96;76881.91;5096384;28;20292;-68
2023/05/15 04:59:29;;;;;;;90.40;40.30;;;;;;;-145.94;71.18;76888.03;5095919;28;20192;-68
2023/05/15 05:01:56;;;;;;;122.70;45.87;;;;;;;-145.94;71.44;76890.06;5096099;28;20202;-68
2023/05/15 05:04:22;;;;;;;133.60;48.73;;;;;;;-145.94;71.69;76898.22;5096205;28;20301;-68
2023/05/15 05:06:49;;;;;;;151.23;55.27;;;;;;;-145.94;71.50;76904.34;5095852;28;20289;-68
2023/05/15 05:09:18;;;;;;;139.23;49.10;;;;;;;-145.94;71.81;76906.38;5095867;28;20186;-68
2023/05/15 05:11:46;;;;;;;167.70;55.33;;;;;;;-145.94;71.70;76898.22;5095557;28;20196;-68
2023/05/15 05:14:14;;;;;;;158.07;54.27;;;;;;;-145.94;71.51;76892.09;5095585;28;20186;-68
2023/05/15 05:16:43;;;;;;;157.17;53.00;;;;;;;-145.94;72.07;76894.13;5095506;28;20214;-68
2023/05/15 05:19:09;;;;;;;163.20;55.77;;;;;;;-145.94;72.18;76900.25;5096502;28;20208;-68
2023/05/15 05:21:36;;;;;;;160.13;54.67;;;;;;;-145.94;71.91;76890.06;5095467;28;20189;-68
2023/05/15 05:24:02;;;;;;;194.63;60.50;;;;;;;-145.94;72.22;76896.19;5095303;28;20701;-68
2023/05/15 05:26:29;;;;;;;193.77;60.10;;;;;;;-145.94;72.17;76906.38;5095431;28;20178;-68
2023/05/15 05:28:55;;;;;;;174.53;58.67;;;;;;;-145.94;72.02;76902.28;5095859;28;20181;-68
2023/05/15 05:31:21;;;;;;;182.90;56.73;;;;;;;-145.94;72.18;76902.28;5095260;28;20273;-68
2023/05/15 05:33:48;;;;;;;165.97;54.27;;;;;;;-145.94;72.35;76894.13;5095149;28;20187;-68
2023/05/15 05:36:14;;;;;;;129.13;47.97;;;;;;;-145.94;72.21;76902.28;5095350;28;20192;-68
2023/05/15 05:38:41;;;;;;;105.30;42.70;;;;;;;-145.94;72.50;76924.72;5095038;28;20177;-68
2023/05/15 05:41:07;;;;;;;89.47;38.83;;;;;;;-145.94;72.92;76912.50;5094978;28;20555;-68
2023/05/15 05:43:34;;;;;;;115.47;44.87;;;;;;;-145.94;72.86;76924.72;5094895;28;20228;-68
2023/05/15 05:46:01;;;;;;;154.87;50.73;;;;;;;-145.94;73.22;76939.00;5095192;28;20178;-68
2023/05/15 05:48:27;;;;;;;164.53;52.67;;;;;;;-145.94;73.09;76936.97;5093577;28;20292;-68
2023/05/15 05:50:54;;;;;;;122.53;46.47;;;;;;;-145.94;73.15;76930.84;5094843;28;20656;-68
2023/05/15 05:53:20;;;;;;;99.70;41.43;;;;;;;-145.94;72.93;76934.94;5095379;28;20214;-68
2023/05/15 05:55:47;;;;;;;112.20;41.67;;;;;;;-145.94;73.63;76926.78;5095244;28;20189;-68
2023/05/15 05:58:14;;;;;;;116.87;43.63;;;;;;;-145.94;73.59;76930.84;5095231;28;20573;-68
2023/05/15 06:00:52;;;;;;;113.03;43.03;;;;;;;-145.94;73.57;76926.78;5095215;28;20181;-68
2023/05/15 06:03:19;;;;;;;134.23;47.27;;;;;;;-145.94;73.68;76926.78;5094484;28;20220;-68
2023/05/15 06:05:46;;;;;;;167.97;52.90;;;;;;;-145.94;73.62;76941.03;5094783;28;20595;-68
2023/05/15 06:08:12;;;;;;;149.40;51.13;;;;;;;-145.94;73.15;76949.19;5094539;28;20704;-68
2023/05/15 06:10:39;;;;;;;145.70;51.47;;;;;;;-145.94;73.21;76949.19;5094709;28;20678;-68
2023/05/15 06:13:05;;;;;;;122.87;45.80;;;;;;;-145.94;73.01;76934.94;5094395;28;20182;-68
2023/05/15 06:15:32;;;;;;;173.67;55.00;;;;;;;-145.94;73.04;76936.97;5094364;28;20174;-68
2023/05/15 06:17:58;;;;;;;152.07;51.00;;;;;;;-145.94;73.33;76928.81;5094593;28;20684;-68
2023/05/15 06:20:25;;;;;;;161.20;52.27;;;;;;;-145.94;73.58;76926.78;5094831;28;20613;-67
2023/05/15 06:22:52;;;;;;;143.17;48.43;;;;;;;-145.94;73.64;76922.69;5094196;28;20206;-67
2023/05/15 06:25:18;;;;;;;119.33;47.50;;;;;;;-145.94;73.01;76914.53;5094258;28;20621;-68
2023/05/15 06:27:46;;;;;;;146.50;51.23;;;;;;;-145.94;73.31;76912.50;5093937;28;20300;-68
2023/05/15 06:30:12;;;;;;;167.90;52.50;;;;;;;-145.94;72.72;76914.53;5094154;28;20656;-68
2023/05/15 06:32:40;;;;;;;133.27;50.77;;;;;;;-145.94;72.66;76914.53;5094060;28;20182;-68
2023/05/15 06:35:08;;;;;;;126.73;49.23;;;;;;;-145.94;73.09;76914.53;5094022;28;20239;-68
2023/05/15 06:37:35;;;;;;;176.33;51.93;;;;;;;-145.94;73.21;76908.41;5094181;28;20660;-68
2023/05/15 06:40:03;;;;;;;152.40;51.83;;;;;;;-145.94;72.62;76920.66;5094467;28;20186;-68
2023/05/15 06:42:30;;;;;;;166.67;54.97;;;;;;;-145.94;72.75;76916.56;5093913;28;20209;-68
2023/05/15 06:44:56;;;;;;;161.03;51.87;;;;;;;-145.94;72.75;76902.28;5093796;28;20220;-68
2023/05/15 06:47:22;;;;;;;191.33;58.40;;;;;;;-145.94;72.96;76910.47;5093794;28;20722;-68
2023/05/15 06:49:49;;;;;;;152.93;54.17;;;;;;;-145.94;72.66;76914.53;5093835;28;20175;-68
2023/05/15 06:52:15;;;;;;;147.07;52.20;;;;;;;-145.94;72.88;76908.41;5094252;28;20189;-68
2023/05/15 06:54:42;;;;;;;147.87;53.90;;;;;;;-145.94;72.22;76902.28;5093689;28;20188;-68
2023/05/15 06:57:08;;;;;;;186.97;60.80;;;;;;;-145.94;71.94;76898.22;5093846;28;20213;-68
2023/05/15 06:59:35;;;;;;;170.97;56.87;;;;;;;-145.94;72.07;76898.22;5093286;28;20656;-68
2023/05/15 07:02:04;;;;;;;184.70;61.03;;;;;;;-145.94;71.46;76885.97;5093616;28;20204;-68
2023/05/15 07:04:30;;;;;;;96.33;42.23;;;;;;;-145.94;70.61;76885.97;5093740;28;20197;-68
2023/05/15 07:06:57;;;;;;;81.80;39.03;;;;;;;-145.94;70.94;76869.66;5093736;28;20288;-69
2023/05/15 07:09:24;;;;;;;72.70;38.10;;;;;;;-145.94;69.63;76861.50;5093563;28;20279;-68
2023/05/15 07:11:50;;;;;;;88.97;42.73;;;;;;;-145.94;69.34;76843.16;5093420;28;20660;-69
2023/05/15 07:14:17;;;;;;;113.73;47.93;;;;;;;-145.94;68.60;76853.34;5093430;28;20264;-69
2023/05/15 07:16:44;;;;;;;89.47;43.30;;;;;;;-145.94;67.62;76837.03;5093394;28;20197;-69
2023/05/15 07:19:10;;;;;;;81.00;40.37;;;;;;;-145.94;67.82;76824.81;5093443;28;20272;-69
2023/05/15 07:21:38;;;;;;;69.63;37.13;;;;;;;-145.94;67.12;76818.69;5093434;28;20182;-68
2023/05/15 07:24:04;;;;;;;79.43;36.67;;;;;;;-145.94;67.81;76806.47;5093316;28;20213;-68
2023/05/15 07:26:31;;;;;;;61.17;36.10;;;;;;;-145.94;67.42;76800.34;5093171;28;20244;-69
2023/05/15 07:29:12;;;;;;;59.93;32.97;;;;;;;-145.94;66.57;76794.22;5093803;28;20193;-68
2023/05/15 07:31:39;;;;;;;66.43;33.20;;;;;;;-145.94;67.49;76761.59;5093301;28;20221;-68
2023/05/15 07:34:05;;;;;;;57.30;29.60;;;;;;;-145.94;66.98;76747.31;5093232;28;20255;-68
2023/05/15 07:36:32;;;;;;;45.80;27.33;;;;;;;-145.94;65.46;76731.00;5093170;28;20296;-69
2023/05/15 07:38:58;;;;;;;47.53;26.00;;;;;;;-145.94;64.82;76735.09;5093184;28;20277;-68
2023/05/15 07:41:25;;;;;;;36.03;24.93;;;;;;;-145.94;64.09;76733.03;5093205;28;20221;-68
2023/05/15 07:43:51;;;;;;;34.17;25.60;;;;;;;-145.94;63.80;76722.84;5093040;28;20305;-69
2023/05/15 07:46:17;;;;;;;33.60;23.13;;;;;;;-145.94;63.85;76714.69;5093070;28;20217;-68
2023/05/15 07:48:44;;;;;;;26.63;21.50;;;;;;;-145.94;62.35;76714.69;5093100;28;20217;-69
2023/05/15 07:51:10;;;;;;;26.27;22.13;;;;;;;-145.94;62.39;76698.38;5093553;28;20661;-68
2023/05/15 07:53:37;;;;;;;24.87;19.90;;;;;;;-145.94;60.72;76696.34;5093000;28;20273;-68
2023/05/15 07:56:03;;;;;;;29.20;19.33;;;;;;;-145.94;59.94;76688.19;5093118;28;20186;-68
2023/05/15 07:58:30;;;;;;;34.20;21.00;;;;;;;-145.94;61.20;76665.75;5093003;28;20282;-69
2023/05/15 08:00:57;;;;;;;27.80;21.00;;;;;;;-145.94;60.83;76663.72;5093048;28;20209;-69
2023/05/15 08:03:23;;;;;;;20.87;18.77;;;;;;;-145.94;59.63;76659.63;5092900;28;20292;-68
2023/05/15 08:05:50;;;;;;;22.43;19.53;;;;;;;-145.94;60.43;76657.59;5093905;28;20578;-68
2023/05/15 08:08:17;;;;;;;28.53;20.83;;;;;;;-145.94;60.64;76655.56;5093099;28;20259;-69
2023/05/15 08:10:43;;;;;;;24.40;19.47;;;;;;;-145.94;60.63;76643.31;5094549;28;20272;-69
2023/05/15 08:13:10;;;;;;;28.40;20.00;;;;;;;-145.94;60.41;76645.38;5097277;28;20269;-69
2023/05/15 08:15:36;;;;;;;28.47;20.50;;;;;;;-145.94;60.21;76651.47;5096698;28;20196;-68
2023/05/15 08:18:08;;;;;;;22.27;19.97;;;;;;;-145.94;60.16;76639.25;5096552;28;20210;-69
2023/05/15 08:20:35;;;;;;;25.73;19.63;;;;;;;-145.94;59.90;76645.38;5096976;28;20540;-69
2023/05/15 08:23:01;;;;;;;27.03;20.17;;;;;;;-145.94;60.48;76643.31;5096499;28;20273;-69
2023/05/15 08:25:28;;;;;;;25.83;21.13;;;;;;;-145.94;60.17;76633.13;5096346;28;20187;-68
2023/05/15 08:27:54;;;;;;;37.93;20.80;;;;;;;-145.94;59.90;76616.81;5096771;28;20284;-70
2023/05/15 08:30:21;;;;;;;31.33;19.77;;;;;;;-145.94;60.16;76618.84;5096985;28;20643;-68
2023/05/15 08:32:48;;;;;;;22.73;20.27;;;;;;;-145.94;59.46;76602.53;5096358;28;20559;-69
2023/05/15 08:35:14;;;;;;;22.03;19.70;;;;;;;-145.94;59.91;76592.34;5096676;28;20631;-69
2023/05/15 08:37:41;;;;;;;20.57;18.33;;;;;;;-145.94;59.72;76586.22;5096698;28;20633;-68
2023/05/15 08:40:08;;;;;;;31.73;19.97;;;;;;;-145.94;59.74;76563.81;5096495;28;20216;-69
2023/05/15 08:42:52;;;;;;;25.10;20.30;;;;;;;-145.94;59.23;76561.75;5096475;28;20182;-68
2023/05/15 08:45:19;;;;;;;27.07;18.93;;;;;;;-145.94;59.81;76539.34;5096467;28;20220;-68
2023/05/15 08:47:46;;;;;;;21.40;19.23;;;;;;;-145.94;59.30;76527.09;5096324;28;20237;-68
2023/05/15 08:50:14;;;;;;;27.20;20.20;;;;;;;-145.94;59.70;76514.88;5096077;28;20273;-69
2023/05/15 08:52:45;;;;;;;23.80;18.83;;;;;;;-145.94;59.81;76506.72;5095914;28;20612;-68
2023/05/15 08:55:15;;;;;;;24.53;19.43;;;;;;;-145.94;59.30;76474.09;5096816;28;20174;-69
2023/05/15 08:57:43;;;;;;;21.03;18.00;;;;;;;-145.94;56.89;76472.03;5096186;28;20209;-69
2023/05/15 09:00:13;;;;;;;21.30;19.03;;;;;;;-145.94;55.24;76478.16;5095888;28;20532;-70
2023/05/15 09:02:41;;;;;;;20.77;18.67;;;;;;;-145.94;55.78;76476.13;5095834;28;20185;-69
2023/05/15 09:05:08;;;;;;;24.03;18.87;;;;;;;-145.94;55.28;76476.13;5096254;28;20209;-69
2023/05/15 09:07:37;;;;;;;19.37;17.53;;;;;;;-145.94;55.43;76463.88;5077945;28;20572;-69
2023/05/15 09:10:05;;;;;;;23.40;20.67;;;;;;;-145.94;55.89;76455.72;5095943;28;20544;-69
2023/05/15 09:12:33;;;;;;;25.07;20.17;;;;;;;-145.94;55.73;76453.69;5095642;28;20277;-69
2023/05/15 09:15:16;;;;;;;24.97;18.87;;;;;;;-145.94;56.00;76453.69;5096137;28;20256;-69
2023/05/15 09:17:44;;;;;;;21.53;18.73;;;;;;;-145.94;55.76;76445.53;5096076;28;20701;-69
2023/05/15 09:20:25;;;;;;;23.13;19.77;;;;;;;-145.94;55.88;76437.38;5096060;28;20186;-69
2023/05/15 09:22:52;;;;;;;29.30;19.33;;;;;;;-145.94;55.29;76441.47;5095140;28;20377;-69
2023/05/15 09:25:37;;;;;;;20.70;18.60;;;;;;;-145.94;54.87;76441.47;5095322;28;20237;-68
2023/05/15 09:28:09;;;;;;;21.17;18.37;;;;;;;-145.94;54.90;76419.03;5095231;28;20216;-69
2023/05/15 09:30:41;;;;;;;20.80;17.83;;;;;;;-145.94;55.78;76408.84;5095643;28;20179;-69
2023/05/15 09:33:08;;;;;;;26.00;18.87;;;;;;;-145.94;55.65;76394.56;5095489;28;20241;-69
2023/05/15 09:35:36;;;;;;;21.60;18.57;;;;;;;-145.94;55.37;76404.75;5095731;28;20182;-69
2023/05/15 09:38:08;;;;;;;28.50;16.90;;;;;;;-145.94;54.35;76400.69;5095111;28;20241;-69
2023/05/15 09:40:34;;;;;;;17.63;16.07;;;;;;;-145.94;55.23;76384.38;5095461;28;20227;-69
2023/05/15 09:43:01;;;;;;;19.33;17.47;;;;;;;-145.94;54.92;76374.19;5095053;28;20698;-70
2023/05/15 09:45:28;;;;;;;20.90;15.93;;;;;;;-145.94;53.75;76368.06;5094949;28;20220;-69
2023/05/15 09:47:56;;;;;;;17.50;15.53;;;;;;;-145.94;53.26;76361.94;5094892;28;20241;-68
2023/05/15 09:50:30;;;;;;;18.53;16.63;;;;;;;-145.94;53.26;76353.78;5095128;28;20246;-68
2023/05/15 09:52:58;;;;;;;20.23;17.27;;;;;;;-145.94;52.60;76353.78;5095195;28;20178;-69
2023/05/15 09:55:24;;;;;;;22.80;17.63;;;;;;;-145.94;53.24;76341.56;5094812;28;20270;-69
2023/05/15 09:58:14;;;;;;;17.00;15.30;;;;;;;-145.94;53.34;76349.72;5094701;28;20618;-69
2023/05/15 10:00:43;;;;;;;16.90;15.27;;;;;;;-145.94;52.46;76349.72;5095219;28;20178;-69
2023/05/15 10:03:15;;;;;;;19.70;14.90;;;;;;;-145.94;54.56;76335.44;5094727;28;20174;-69
2023/05/15 10:05:42;;;;;;;17.57;15.87;;;;;;;-145.94;52.94;76323.19;5076248;28;20210;-69
2023/05/15 10:08:10;;;;;;;18.80;15.37;;;;;;;-145.94;53.64;76317.09;5094596;28;20202;-69
2023/05/15 10:10:37;;;;;;;16.13;14.73;;;;;;;-145.94;52.61;76323.19;5094286;28;20239;-69
2023/05/15 10:13:06;;;;;;;17.10;15.37;;;;;;;-145.94;52.77;76308.94;5094965;28;20765;-69
2023/05/15 10:15:33;;;;;;;16.50;15.07;;;;;;;-145.94;53.52;76288.53;5094491;28;20652;-69
2023/05/15 10:18:02;;;;;;;15.83;14.30;;;;;;;-145.94;51.38;76278.34;5094389;28;20236;-71
2023/05/15 10:20:30;;;;;;;14.63;13.53;;;;;;;-145.94;51.62;76270.19;5094612;28;20186;-70
2023/05/15 10:22:59;;;;;;;14.60;12.20;;;;;;;-145.94;50.95;76270.19;5095285;28;20560;-69
2023/05/15 10:25:40;;;;;;;13.00;11.90;;;;;;;-145.94;49.71;76270.19;5094182;28;20255;-69
2023/05/15 10:28:10;;;;;;;13.10;11.90;;;;;;;-145.94;48.59;76270.19;5094029;28;20251;-68
2023/05/15 10:30:38;;;;;;;11.03;10.43;;;;;;;-145.94;48.77;76280.38;5094768;28;20248;-70
2023/05/15 10:33:06;;;;;;;11.53;10.87;;;;;;;-145.94;49.10;76274.28;5094012;28;20190;-69
2023/05/15 10:35:33;;;;;;;12.20;11.40;;;;;;;-145.94;47.99;76276.31;5094576;28;20178;-68
2023/05/15 10:38:03;;;;;;;13.50;12.30;;;;;;;-145.94;49.79;76270.19;5094623;28;20292;-69
2023/05/15 10:40:29;;;;;;;14.57;13.03;;;;;;;-145.94;49.26;76264.06;5093935;28;20333;-68
2023/05/15 10:42:59;;;;;;;12.97;12.17;;;;;;;-145.94;49.58;76251.84;5093970;28;20274;-68
2023/05/15 10:45:26;;;;;;;13.63;12.53;;;;;;;-145.94;49.11;76235.53;5093840;28;20202;-69
2023/05/15 10:47:53;;;;;;;14.40;13.03;;;;;;;-145.94;48.97;76215.13;5093846;28;20224;-69
2023/05/15 10:50:20;;;;;;;14.00;12.87;;;;;;;-145.94;49.14;76192.72;5094140;28;20220;-69
2023/05/15 10:52:50;;;;;;;13.20;11.90;;;;;;;-145.94;50.88;76170.28;5093874;28;20221;-70
2023/05/15 10:55:17;;;;;;;13.63;12.47;;;;;;;-145.94;50.43;76166.22;5093809;28;20205;-68
2023/05/15 10:57:46;;;;;;;14.37;12.90;;;;;;;-145.94;50.27;76141.75;5093787;28;20297;-70
2023/05/15 11:00:21;;;;;;;13.57;12.20;;;;;;;-145.94;48.42;76141.75;5093612;28;20214;-69
2023/05/15 11:02:52;;;;;;;15.63;13.00;;;;;;;-145.94;47.55;76137.66;5094272;28;20184;-70
2023/05/15 11:05:19;;;;;;;20.53;12.83;;;;;;;-145.94;48.12;76113.19;5094060;28;20201;-70